<?xml version='1.0' encoding='UTF-8'?><gpx version="1.1" creator="JPX - https://github.com/jenetics/jpx" xmlns="http://www.topografix.com/GPX/1/1"><trk><trkseg><trkpt lat="42.66548929963713" lon="12.732638129622002"><ele>668.7142857142857</ele><time>2026-04-11T07:34:48Z</time></trkpt><trkpt lat="42.665470659922946" lon="12.732724970201584"><ele>669.4285714285714</ele><time>2026-04-11T07:34:53Z</time></trkpt><trkpt lat="42.66545842967938" lon="12.732821569097455"><ele>670.1428571428571</ele><time>2026-04-11T07:34:58Z</time></trkpt><trkpt lat="42.66542365199607" lon="12.732894510380884"><ele>670.8571428571429</ele><time>2026-04-11T07:35:03Z</time></trkpt><trkpt lat="42.66538915920713" lon="12.732975501107159"><ele>671.5714285714286</ele><time>2026-04-11T07:35:08Z</time></trkpt><trkpt lat="42.66534318795051" lon="12.73304126188991"><ele>672.2857142857143</ele><time>2026-04-11T07:35:13Z</time></trkpt><trkpt lat="42.66530439888652" lon="12.733117201505157"><ele>673.0</ele><time>2026-04-11T07:35:18Z</time></trkpt><trkpt lat="42.66526223199109" lon="12.733194504748733"><ele>673.0</ele><time>2026-04-11T07:35:23Z</time></trkpt><trkpt lat="42.665212265615786" lon="12.733262050408284"><ele>673.0</ele><time>2026-04-11T07:35:28Z</time></trkpt><trkpt lat="42.665181961616305" lon="12.73335179978675"><ele>673.0</ele><time>2026-04-11T07:35:33Z</time></trkpt><trkpt lat="42.665153376302676" lon="12.733439936073147"><ele>673.0</ele><time>2026-04-11T07:35:38Z</time></trkpt><trkpt lat="42.665151835483165" lon="12.73352734681654"><ele>673.0</ele><time>2026-04-11T07:35:43Z</time></trkpt><trkpt lat="42.665216424137846" lon="12.733516791380023"><ele>673.0</ele><time>2026-04-11T07:35:51Z</time></trkpt><trkpt lat="42.665263126359584" lon="12.73345919482143"><ele>673.0</ele><time>2026-04-11T07:35:56Z</time></trkpt><trkpt lat="42.665331965488704" lon="12.733422142853032"><ele>671.0</ele><time>2026-04-11T07:36:03Z</time></trkpt><trkpt lat="42.66535798394202" lon="12.73350916342662"><ele>669.0</ele><time>2026-04-11T07:36:11Z</time></trkpt><trkpt lat="42.66541019817565" lon="12.733576728742126"><ele>667.0</ele><time>2026-04-11T07:36:19Z</time></trkpt><trkpt lat="42.66547250119017" lon="12.73362485594876"><ele>665.0</ele><time>2026-04-11T07:36:25Z</time></trkpt><trkpt lat="42.66553965106414" lon="12.733678285778543"><ele>663.0</ele><time>2026-04-11T07:36:31Z</time></trkpt><trkpt lat="42.665586380909396" lon="12.733737717302013"><ele>661.0</ele><time>2026-04-11T07:36:36Z</time></trkpt><trkpt lat="42.66563679121764" lon="12.733807980173603"><ele>659.0</ele><time>2026-04-11T07:36:43Z</time></trkpt><trkpt lat="42.66570263886384" lon="12.73380064213742"><ele>659.0</ele><time>2026-04-11T07:36:50Z</time></trkpt><trkpt lat="42.66575541609261" lon="12.733723517406661"><ele>659.0</ele><time>2026-04-11T07:36:57.999Z</time></trkpt><trkpt lat="42.66571212238406" lon="12.733654038538758"><ele>659.0</ele><time>2026-04-11T07:37:04.999Z</time></trkpt><trkpt lat="42.66564972492668" lon="12.733620279443016"><ele>659.0</ele><time>2026-04-11T07:37:11.999Z</time></trkpt><trkpt lat="42.66558492878597" lon="12.733585242352314"><ele>659.0</ele><time>2026-04-11T07:37:18.999Z</time></trkpt><trkpt lat="42.665522786872685" lon="12.733552433338152"><ele>659.0</ele><time>2026-04-11T07:37:24.999Z</time></trkpt><trkpt lat="42.66558222441649" lon="12.733500521204148"><ele>659.0</ele><time>2026-04-11T07:40:20Z</time></trkpt><trkpt lat="42.665666514059915" lon="12.73352177969484"><ele>659.0</ele><time>2026-04-11T07:40:23Z</time></trkpt><trkpt lat="42.66573348968198" lon="12.733546378035932"><ele>659.0</ele><time>2026-04-11T07:40:27Z</time></trkpt><trkpt lat="42.66579770638022" lon="12.733592960481195"><ele>659.0</ele><time>2026-04-11T07:40:34Z</time></trkpt><trkpt lat="42.665861578436875" lon="12.733619144130797"><ele>659.0</ele><time>2026-04-11T07:40:40Z</time></trkpt><trkpt lat="42.66591339682643" lon="12.733568989176412"><ele>659.0</ele><time>2026-04-11T07:40:48Z</time></trkpt><trkpt lat="42.665849742245214" lon="12.733528768416347"><ele>659.0</ele><time>2026-04-11T07:40:56Z</time></trkpt><trkpt lat="42.66578565565532" lon="12.733492241458693"><ele>659.0</ele><time>2026-04-11T07:41:05Z</time></trkpt><trkpt lat="42.665724729958114" lon="12.733460680067742"><ele>659.0</ele><time>2026-04-11T07:41:11Z</time></trkpt><trkpt lat="42.66567002665475" lon="12.73341109123838"><ele>659.0</ele><time>2026-04-11T07:41:19Z</time></trkpt><trkpt lat="42.665642259263244" lon="12.73333070892094"><ele>659.0</ele><time>2026-04-11T07:41:30Z</time></trkpt><trkpt lat="42.66563350418966" lon="12.733242489190964"><ele>659.0</ele><time>2026-04-11T07:41:39Z</time></trkpt><trkpt lat="42.665610864558175" lon="12.733159611341069"><ele>659.0</ele><time>2026-04-11T07:41:47Z</time></trkpt><trkpt lat="42.66556035121138" lon="12.733022266846893"><ele>659.0</ele><time>2026-04-11T07:42:33Z</time></trkpt><trkpt lat="42.665531486724696" lon="12.73293090675306"><ele>659.0</ele><time>2026-04-11T07:42:40Z</time></trkpt><trkpt lat="42.665548435381204" lon="12.732841700993667"><ele>659.0</ele><time>2026-04-11T07:42:47Z</time></trkpt><trkpt lat="42.66561719682703" lon="12.732861073666772"><ele>659.0</ele><time>2026-04-11T07:42:54Z</time></trkpt><trkpt lat="42.66567728134654" lon="12.732904729247808"><ele>659.0</ele><time>2026-04-11T07:43:00Z</time></trkpt><trkpt lat="42.66575012873449" lon="12.73289700287258"><ele>659.0</ele><time>2026-04-11T07:43:11Z</time></trkpt><trkpt lat="42.66581175846626" lon="12.73284740261125"><ele>659.0</ele><time>2026-04-11T07:43:34Z</time></trkpt><trkpt lat="42.665854874363966" lon="12.732762547761755"><ele>659.0</ele><time>2026-04-11T07:43:56Z</time></trkpt><trkpt lat="42.66590289014205" lon="12.732697053602003"><ele>659.0</ele><time>2026-04-11T07:44:06Z</time></trkpt><trkpt lat="42.66597306548642" lon="12.732684540145465"><ele>660.2857142857143</ele><time>2026-04-11T07:44:13Z</time></trkpt><trkpt lat="42.66603438041617" lon="12.732713662420565"><ele>661.5714285714286</ele><time>2026-04-11T07:44:19Z</time></trkpt><trkpt lat="42.66610349377488" lon="12.732719663451341"><ele>662.8571428571429</ele><time>2026-04-11T07:44:24Z</time></trkpt><trkpt lat="42.666167891473194" lon="12.732735394163646"><ele>664.1428571428571</ele><time>2026-04-11T07:44:29Z</time></trkpt><trkpt lat="42.66623552151562" lon="12.732759850004488"><ele>665.4285714285714</ele><time>2026-04-11T07:44:34Z</time></trkpt><trkpt lat="42.66629891401504" lon="12.732770066007685"><ele>666.7142857142857</ele><time>2026-04-11T07:44:39Z</time></trkpt><trkpt lat="42.666363663483544" lon="12.732792023862775"><ele>668.0</ele><time>2026-04-11T07:44:45Z</time></trkpt><trkpt lat="42.66643057564852" lon="12.732826995833221"><ele>664.5714285714286</ele><time>2026-04-11T07:44:51Z</time></trkpt><trkpt lat="42.66649025231393" lon="12.73286139048525"><ele>661.1428571428571</ele><time>2026-04-11T07:44:56Z</time></trkpt><trkpt lat="42.66655236208959" lon="12.732876979950023"><ele>657.7142857142858</ele><time>2026-04-11T07:45:02Z</time></trkpt><trkpt lat="42.666614822814175" lon="12.732905962074417"><ele>654.2857142857142</ele><time>2026-04-11T07:45:08Z</time></trkpt><trkpt lat="42.66667092142571" lon="12.73295302942649"><ele>650.8571428571429</ele><time>2026-04-11T07:45:17Z</time></trkpt><trkpt lat="42.66669335148207" lon="12.733034082396225"><ele>647.4285714285714</ele><time>2026-04-11T07:45:30Z</time></trkpt><trkpt lat="42.6667417844593" lon="12.733101625928295"><ele>644.0</ele><time>2026-04-11T07:45:37Z</time></trkpt><trkpt lat="42.66680643231601" lon="12.733128909525771"><ele>644.0</ele><time>2026-04-11T07:45:44Z</time></trkpt><trkpt lat="42.66688046580996" lon="12.733122366102013"><ele>644.0</ele><time>2026-04-11T07:45:50Z</time></trkpt><trkpt lat="42.66694217477963" lon="12.733074992361994"><ele>644.0</ele><time>2026-04-11T07:45:55Z</time></trkpt><trkpt lat="42.66700470086852" lon="12.73304736822136"><ele>644.0</ele><time>2026-04-11T07:46:00Z</time></trkpt><trkpt lat="42.66707089611268" lon="12.733008535091987"><ele>644.0</ele><time>2026-04-11T07:46:06Z</time></trkpt><trkpt lat="42.66711991084244" lon="12.732943401018657"><ele>644.0</ele><time>2026-04-11T07:46:12Z</time></trkpt><trkpt lat="42.66717018239523" lon="12.732876932564357"><ele>644.0</ele><time>2026-04-11T07:46:18Z</time></trkpt><trkpt lat="42.6672235155685" lon="12.732802746549963"><ele>644.7142857142857</ele><time>2026-04-11T07:46:24Z</time></trkpt><trkpt lat="42.66727099938468" lon="12.732746158918701"><ele>645.4285714285714</ele><time>2026-04-11T07:46:29Z</time></trkpt><trkpt lat="42.66732341977614" lon="12.732685874551152"><ele>646.1428571428571</ele><time>2026-04-11T07:46:35Z</time></trkpt><trkpt lat="42.66733715071553" lon="12.73259061263099"><ele>646.8571428571429</ele><time>2026-04-11T07:46:42Z</time></trkpt><trkpt lat="42.667273749708606" lon="12.732554133044648"><ele>647.5714285714286</ele><time>2026-04-11T07:46:48Z</time></trkpt><trkpt lat="42.66720362033434" lon="12.732598595503731"><ele>648.2857142857142</ele><time>2026-04-11T07:46:54Z</time></trkpt><trkpt lat="42.667152788359566" lon="12.732672976065949"><ele>649.0</ele><time>2026-04-11T07:47:00Z</time></trkpt><trkpt lat="42.66711081634729" lon="12.732738822399247"><ele>648.9999999999999</ele><time>2026-04-11T07:47:07Z</time></trkpt><trkpt lat="42.66707074909785" lon="12.732805899970936"><ele>649.0</ele><time>2026-04-11T07:47:14Z</time></trkpt><trkpt lat="42.667011254947695" lon="12.732862415527908"><ele>649.0</ele><time>2026-04-11T07:47:20Z</time></trkpt><trkpt lat="42.66695270114097" lon="12.732905312694127"><ele>649.0</ele><time>2026-04-11T07:47:27Z</time></trkpt><trkpt lat="42.66689432632835" lon="12.732853151198452"><ele>649.0</ele><time>2026-04-11T07:47:35Z</time></trkpt><trkpt lat="42.66690395592077" lon="12.732765776538848"><ele>648.9999999999999</ele><time>2026-04-11T07:47:42Z</time></trkpt><trkpt lat="42.6669291976321" lon="12.732679313580112"><ele>649.0</ele><time>2026-04-11T07:47:51Z</time></trkpt><trkpt lat="42.66696317699298" lon="12.732595132570317"><ele>648.9999999999999</ele><time>2026-04-11T07:47:59Z</time></trkpt><trkpt lat="42.667003097175694" lon="12.732512976915286"><ele>649.0</ele><time>2026-04-11T07:48:05Z</time></trkpt><trkpt lat="42.66703805045194" lon="12.732427113814088"><ele>649.0</ele><time>2026-04-11T07:48:12Z</time></trkpt><trkpt lat="42.6670836561382" lon="12.732352687587214"><ele>649.0</ele><time>2026-04-11T07:48:18Z</time></trkpt><trkpt lat="42.66712895833269" lon="12.732291017919687"><ele>649.0</ele><time>2026-04-11T07:48:30Z</time></trkpt><trkpt lat="42.66718957677189" lon="12.73233063197252"><ele>648.9999999999999</ele><time>2026-04-11T07:48:48Z</time></trkpt><trkpt lat="42.66726293635268" lon="12.732326833508493"><ele>649.0</ele><time>2026-04-11T07:48:57Z</time></trkpt><trkpt lat="42.667315229168565" lon="12.732258578583336"><ele>648.9999999999999</ele><time>2026-04-11T07:49:03Z</time></trkpt><trkpt lat="42.66734902869972" lon="12.732171737355664"><ele>649.0</ele><time>2026-04-11T07:49:10Z</time></trkpt><trkpt lat="42.66736484367991" lon="12.732071419624683"><ele>649.0</ele><time>2026-04-11T07:49:17Z</time></trkpt><trkpt lat="42.66739349343846" lon="12.731986728127424"><ele>649.0</ele><time>2026-04-11T07:49:23Z</time></trkpt><trkpt lat="42.66740341518447" lon="12.731896884895441"><ele>649.0</ele><time>2026-04-11T07:49:28Z</time></trkpt><trkpt lat="42.66740858988221" lon="12.731793583312047"><ele>648.9999999999999</ele><time>2026-04-11T07:49:35Z</time></trkpt><trkpt lat="42.66739427371838" lon="12.731706037819698"><ele>649.0</ele><time>2026-04-11T07:49:42Z</time></trkpt><trkpt lat="42.66732795573905" lon="12.731715273751071"><ele>648.9999999999999</ele><time>2026-04-11T07:49:49Z</time></trkpt><trkpt lat="42.667301127995046" lon="12.7318036428959"><ele>649.0</ele><time>2026-04-11T07:49:57Z</time></trkpt><trkpt lat="42.66726422965172" lon="12.731884443730106"><ele>649.0</ele><time>2026-04-11T07:50:02Z</time></trkpt><trkpt lat="42.66721634699392" lon="12.731962236345518"><ele>649.0</ele><time>2026-04-11T07:50:07Z</time></trkpt><trkpt lat="42.66716268006521" lon="12.73203019194457"><ele>649.0</ele><time>2026-04-11T07:50:12Z</time></trkpt><trkpt lat="42.6671088982324" lon="12.732099394814723"><ele>648.9999999999999</ele><time>2026-04-11T07:50:18Z</time></trkpt><trkpt lat="42.66707199053139" lon="12.732173480251676"><ele>649.0</ele><time>2026-04-11T07:50:36Z</time></trkpt><trkpt lat="42.666999208082885" lon="12.732266140551824"><ele>648.2857142857142</ele><time>2026-04-11T07:50:57Z</time></trkpt><trkpt lat="42.66694370758344" lon="12.732326577816588"><ele>647.5714285714286</ele><time>2026-04-11T07:51:17Z</time></trkpt><trkpt lat="42.66690025954587" lon="12.73240326195286"><ele>646.8571428571429</ele><time>2026-04-11T07:51:29Z</time></trkpt><trkpt lat="42.666872758075314" lon="12.732482574775585"><ele>646.1428571428571</ele><time>2026-04-11T07:51:36Z</time></trkpt><trkpt lat="42.666859859143926" lon="12.73256705361867"><ele>645.4285714285714</ele><time>2026-04-11T07:51:42Z</time></trkpt><trkpt lat="42.666845321586216" lon="12.732661646356414"><ele>644.7142857142857</ele><time>2026-04-11T07:51:49Z</time></trkpt><trkpt lat="42.66680368515911" lon="12.732742240894174"><ele>644.0</ele><time>2026-04-11T07:51:57Z</time></trkpt><trkpt lat="42.666741821056775" lon="12.732786464795222"><ele>644.0</ele><time>2026-04-11T07:52:03Z</time></trkpt><trkpt lat="42.66667670949683" lon="12.732770648922942"><ele>644.0</ele><time>2026-04-11T07:52:08Z</time></trkpt><trkpt lat="42.66660774302849" lon="12.732762302013631"><ele>644.0</ele><time>2026-04-11T07:52:14Z</time></trkpt><trkpt lat="42.66654768642203" lon="12.73273571999158"><ele>644.0</ele><time>2026-04-11T07:52:19Z</time></trkpt><trkpt lat="42.66647730290009" lon="12.732712834307833"><ele>644.0</ele><time>2026-04-11T07:52:26Z</time></trkpt><trkpt lat="42.666409463797905" lon="12.732682962494442"><ele>644.0</ele><time>2026-04-11T07:52:33Z</time></trkpt><trkpt lat="42.66634583814005" lon="12.732666005893199"><ele>644.0</ele><time>2026-04-11T07:52:40Z</time></trkpt><trkpt lat="42.666278863642205" lon="12.732651577234972"><ele>646.0</ele><time>2026-04-11T07:52:47Z</time></trkpt><trkpt lat="42.66620817401158" lon="12.732636059538953"><ele>648.0</ele><time>2026-04-11T07:52:53Z</time></trkpt><trkpt lat="42.666135250611234" lon="12.73262906808349"><ele>650.0</ele><time>2026-04-11T07:53:00Z</time></trkpt><trkpt lat="42.66607641340136" lon="12.732596413586053"><ele>652.0</ele><time>2026-04-11T07:53:06Z</time></trkpt><trkpt lat="42.66600644061556" lon="12.732589028346105"><ele>654.0</ele><time>2026-04-11T07:53:14Z</time></trkpt><trkpt lat="42.66593549118426" lon="12.732587044208852"><ele>656.0</ele><time>2026-04-11T07:53:22Z</time></trkpt><trkpt lat="42.66586393730012" lon="12.732583162438706"><ele>658.0</ele><time>2026-04-11T07:53:29Z</time></trkpt><trkpt lat="42.66579429179141" lon="12.7325803670132"><ele>659.4285714285714</ele><time>2026-04-11T07:53:36Z</time></trkpt><trkpt lat="42.66574323304286" lon="12.732520385124383"><ele>660.8571428571429</ele><time>2026-04-11T07:53:43Z</time></trkpt><trkpt lat="42.6657720115352" lon="12.732439028854218"><ele>662.2857142857142</ele><time>2026-04-11T07:53:50Z</time></trkpt><trkpt lat="42.66583117553274" lon="12.732397426665914"><ele>663.7142857142858</ele><time>2026-04-11T07:53:57Z</time></trkpt><trkpt lat="42.665902051180325" lon="12.732407402727556"><ele>665.1428571428571</ele><time>2026-04-11T07:54:04Z</time></trkpt><trkpt lat="42.66597127028489" lon="12.732418859024122"><ele>666.5714285714286</ele><time>2026-04-11T07:54:10Z</time></trkpt><trkpt lat="42.66603822254453" lon="12.732451312848516"><ele>668.0</ele><time>2026-04-11T07:54:17Z</time></trkpt><trkpt lat="42.66610353730502" lon="12.732450999182658"><ele>666.5714285714286</ele><time>2026-04-11T07:54:29.999Z</time></trkpt><trkpt lat="42.66617153846402" lon="12.732464717643216"><ele>665.1428571428571</ele><time>2026-04-11T07:54:38.999Z</time></trkpt><trkpt lat="42.666237954507174" lon="12.732481451586535"><ele>663.7142857142858</ele><time>2026-04-11T07:54:47Z</time></trkpt><trkpt lat="42.66630780198698" lon="12.732492157988196"><ele>662.2857142857142</ele><time>2026-04-11T07:54:53Z</time></trkpt><trkpt lat="42.6663710566623" lon="12.73251384868994"><ele>660.8571428571429</ele><time>2026-04-11T07:54:58Z</time></trkpt><trkpt lat="42.66643447429804" lon="12.732530472709808"><ele>659.4285714285714</ele><time>2026-04-11T07:55:04.001Z</time></trkpt><trkpt lat="42.66650185856873" lon="12.73253454649915"><ele>658.0</ele><time>2026-04-11T07:55:11.001Z</time></trkpt><trkpt lat="42.66657553170717" lon="12.73254490050491"><ele>658.0</ele><time>2026-04-11T07:55:17.001Z</time></trkpt><trkpt lat="42.66664753366461" lon="12.73256462477902"><ele>658.0</ele><time>2026-04-11T07:55:22.001Z</time></trkpt><trkpt lat="42.66671215763209" lon="12.732555848334073"><ele>658.0</ele><time>2026-04-11T07:55:27.001Z</time></trkpt><trkpt lat="42.666751973800864" lon="12.732487915147551"><ele>658.0</ele><time>2026-04-11T07:55:34.001Z</time></trkpt><trkpt lat="42.6667883915798" lon="12.732404746860999"><ele>658.0</ele><time>2026-04-11T07:55:41.001Z</time></trkpt><trkpt lat="42.666805429745004" lon="12.732317130943924"><ele>658.0</ele><time>2026-04-11T07:55:51.001Z</time></trkpt><trkpt lat="42.6667737948268" lon="12.732242482474032"><ele>658.0</ele><time>2026-04-11T07:55:59Z</time></trkpt><trkpt lat="42.66669697758673" lon="12.73225084238492"><ele>658.0</ele><time>2026-04-11T07:56:06Z</time></trkpt><trkpt lat="42.66662797558135" lon="12.732263881069743"><ele>658.0</ele><time>2026-04-11T07:56:13Z</time></trkpt><trkpt lat="42.666557781282066" lon="12.73228315429512"><ele>658.0</ele><time>2026-04-11T07:56:18Z</time></trkpt><trkpt lat="42.666490175951814" lon="12.732304082981988"><ele>658.0</ele><time>2026-04-11T07:56:23Z</time></trkpt><trkpt lat="42.666416658973" lon="12.732341392205239"><ele>658.0</ele><time>2026-04-11T07:56:29Z</time></trkpt><trkpt lat="42.666348606804874" lon="12.732364860903035"><ele>658.0</ele><time>2026-04-11T07:56:34Z</time></trkpt><trkpt lat="42.66628779102805" lon="12.732341560016199"><ele>658.0</ele><time>2026-04-11T07:56:41Z</time></trkpt><trkpt lat="42.666233834151065" lon="12.732283162086137"><ele>658.0</ele><time>2026-04-11T07:57:03Z</time></trkpt><trkpt lat="42.66620309162159" lon="12.73220523150594"><ele>658.0</ele><time>2026-04-11T07:57:12Z</time></trkpt><trkpt lat="42.666183825310725" lon="12.732119776351407"><ele>658.0</ele><time>2026-04-11T07:57:20Z</time></trkpt><trkpt lat="42.66615874127773" lon="12.732021827841754"><ele>658.0</ele><time>2026-04-11T07:57:28Z</time></trkpt><trkpt lat="42.66615101222261" lon="12.731926821119211"><ele>658.0</ele><time>2026-04-11T07:57:36Z</time></trkpt><trkpt lat="42.666142272012046" lon="12.731836692040131"><ele>658.0</ele><time>2026-04-11T07:57:45Z</time></trkpt><trkpt lat="42.666152996523266" lon="12.731730884159683"><ele>658.0</ele><time>2026-04-11T07:58:17Z</time></trkpt><trkpt lat="42.66618206328716" lon="12.731642919933607"><ele>660.4285714285714</ele><time>2026-04-11T07:58:26Z</time></trkpt><trkpt lat="42.666184299098546" lon="12.731553964019566"><ele>662.8571428571429</ele><time>2026-04-11T07:58:36Z</time></trkpt><trkpt lat="42.666218015907944" lon="12.731471112771207"><ele>665.2857142857142</ele><time>2026-04-11T07:58:47Z</time></trkpt><trkpt lat="42.666217004560814" lon="12.73137269385394"><ele>667.7142857142858</ele><time>2026-04-11T07:59:00Z</time></trkpt><trkpt lat="42.66626315413079" lon="12.731279835044738"><ele>670.1428571428571</ele><time>2026-04-11T07:59:17Z</time></trkpt><trkpt lat="42.66628055608032" lon="12.731187222854306"><ele>672.5714285714286</ele><time>2026-04-11T07:59:29Z</time></trkpt><trkpt lat="42.66631519597943" lon="12.731115563819513"><ele>675.0</ele><time>2026-04-11T07:59:39Z</time></trkpt><trkpt lat="42.66634705331959" lon="12.731039448294355"><ele>676.5714285714286</ele><time>2026-04-11T07:59:48Z</time></trkpt><trkpt lat="42.66637863100442" lon="12.730963517233434"><ele>678.1428571428571</ele><time>2026-04-11T07:59:55Z</time></trkpt><trkpt lat="42.66636095165395" lon="12.730878994719017"><ele>679.7142857142858</ele><time>2026-04-11T08:00:03Z</time></trkpt><trkpt lat="42.6662972872258" lon="12.730907643387553"><ele>681.2857142857142</ele><time>2026-04-11T08:00:11Z</time></trkpt><trkpt lat="42.66623455803776" lon="12.730938430001403"><ele>682.8571428571429</ele><time>2026-04-11T08:00:29Z</time></trkpt><trkpt lat="42.666172696052215" lon="12.730972805049053"><ele>684.4285714285714</ele><time>2026-04-11T08:00:56Z</time></trkpt><trkpt lat="42.66610502219684" lon="12.731000936214746"><ele>686.0</ele><time>2026-04-11T08:01:05Z</time></trkpt><trkpt lat="42.66606783749107" lon="12.730923121295183"><ele>687.2857142857143</ele><time>2026-04-11T08:01:11Z</time></trkpt><trkpt lat="42.66607948923141" lon="12.730824858640306"><ele>688.5714285714286</ele><time>2026-04-11T08:01:18Z</time></trkpt><trkpt lat="42.66608610889914" lon="12.730735752647231"><ele>689.8571428571429</ele><time>2026-04-11T08:01:31Z</time></trkpt><trkpt lat="42.666025335164115" lon="12.73068407067063"><ele>691.1428571428571</ele><time>2026-04-11T08:01:40Z</time></trkpt><trkpt lat="42.66597398674994" lon="12.730734606727973"><ele>692.4285714285714</ele><time>2026-04-11T08:02:06Z</time></trkpt><trkpt lat="42.66594362762706" lon="12.730811691599804"><ele>693.7142857142858</ele><time>2026-04-11T08:02:14Z</time></trkpt><trkpt lat="42.66588024040915" lon="12.730805593296976"><ele>695.0</ele><time>2026-04-11T08:02:20Z</time></trkpt><trkpt lat="42.66587002189548" lon="12.73071627897965"><ele>695.0000000000001</ele><time>2026-04-11T08:02:33Z</time></trkpt><trkpt lat="42.665907652369256" lon="12.730646960768654"><ele>695.0</ele><time>2026-04-11T08:02:56Z</time></trkpt><trkpt lat="42.665844832938" lon="12.730606795817305"><ele>695.0</ele><time>2026-04-11T08:03:02Z</time></trkpt><trkpt lat="42.66578005768005" lon="12.73058491672179"><ele>695.0</ele><time>2026-04-11T08:03:07Z</time></trkpt><trkpt lat="42.66570928828845" lon="12.730603949304149"><ele>695.0</ele><time>2026-04-11T08:03:13Z</time></trkpt><trkpt lat="42.66565468822822" lon="12.73067435288583"><ele>695.0000000000001</ele><time>2026-04-11T08:03:19Z</time></trkpt><trkpt lat="42.66562263223695" lon="12.730749546096085"><ele>695.0</ele><time>2026-04-11T08:03:24Z</time></trkpt><trkpt lat="42.665624269228395" lon="12.730836253280286"><ele>695.0000000000001</ele><time>2026-04-11T08:03:29Z</time></trkpt><trkpt lat="42.66566827483335" lon="12.730898863956803"><ele>695.0</ele><time>2026-04-11T08:03:36Z</time></trkpt><trkpt lat="42.665734546983316" lon="12.730925569110864"><ele>695.0</ele><time>2026-04-11T08:03:41Z</time></trkpt><trkpt lat="42.665802256599235" lon="12.730943746930523"><ele>695.0</ele><time>2026-04-11T08:03:47Z</time></trkpt><trkpt lat="42.665871440523716" lon="12.730935395925654"><ele>695.0</ele><time>2026-04-11T08:03:53Z</time></trkpt><trkpt lat="42.665910351076555" lon="12.731003829413005"><ele>695.0000000000001</ele><time>2026-04-11T08:04:04Z</time></trkpt><trkpt lat="42.6658501857103" lon="12.731032999647145"><ele>695.0</ele><time>2026-04-11T08:04:09Z</time></trkpt><trkpt lat="42.665780156837684" lon="12.73106323728628"><ele>692.7142857142858</ele><time>2026-04-11T08:04:15Z</time></trkpt><trkpt lat="42.66571560302299" lon="12.731083658674981"><ele>690.4285714285714</ele><time>2026-04-11T08:04:20Z</time></trkpt><trkpt lat="42.665650786875396" lon="12.731081680217814"><ele>688.1428571428571</ele><time>2026-04-11T08:04:26Z</time></trkpt><trkpt lat="42.66558511722518" lon="12.73111160842264"><ele>685.8571428571429</ele><time>2026-04-11T08:04:38Z</time></trkpt><trkpt lat="42.66556050223599" lon="12.731195178676783"><ele>683.5714285714286</ele><time>2026-04-11T08:04:44Z</time></trkpt><trkpt lat="42.66554263655129" lon="12.731291716632066"><ele>681.2857142857143</ele><time>2026-04-11T08:04:50Z</time></trkpt><trkpt lat="42.66552746176233" lon="12.731386750568298"><ele>679.0</ele><time>2026-04-11T08:04:55Z</time></trkpt><trkpt lat="42.665506101670914" lon="12.731479986028667"><ele>679.0</ele><time>2026-04-11T08:05:00Z</time></trkpt><trkpt lat="42.66549085259958" lon="12.731567848052325"><ele>679.0</ele><time>2026-04-11T08:05:05Z</time></trkpt><trkpt lat="42.66547997355383" lon="12.731655047792712"><ele>679.0</ele><time>2026-04-11T08:05:10Z</time></trkpt><trkpt lat="42.66547144629402" lon="12.731747229785844"><ele>679.0</ele><time>2026-04-11T08:05:15Z</time></trkpt><trkpt lat="42.66546204085534" lon="12.731837337846684"><ele>679.0</ele><time>2026-04-11T08:05:20Z</time></trkpt><trkpt lat="42.665461359406144" lon="12.73193945726551"><ele>679.0</ele><time>2026-04-11T08:05:35Z</time></trkpt><trkpt lat="42.66544670089251" lon="12.732038250444994"><ele>679.0</ele><time>2026-04-11T08:05:42Z</time></trkpt><trkpt lat="42.66548891971336" lon="12.732106593491476"><ele>679.0</ele><time>2026-04-11T08:05:54Z</time></trkpt><trkpt lat="42.66555162641853" lon="12.732142198676607"><ele>679.0</ele><time>2026-04-11T08:06:00Z</time></trkpt><trkpt lat="42.66561410493122" lon="12.732122882098011"><ele>679.0</ele><time>2026-04-11T08:06:08Z</time></trkpt><trkpt lat="42.665665007029155" lon="12.732069757857097"><ele>679.0</ele><time>2026-04-11T08:06:15Z</time></trkpt><trkpt lat="42.66571328616022" lon="12.731999868805207"><ele>679.0</ele><time>2026-04-11T08:06:21Z</time></trkpt><trkpt lat="42.66576710664682" lon="12.731945942593395"><ele>679.0</ele><time>2026-04-11T08:06:26Z</time></trkpt><trkpt lat="42.665806142250354" lon="12.731856435656939"><ele>679.0</ele><time>2026-04-11T08:06:33Z</time></trkpt><trkpt lat="42.665804424022674" lon="12.731765548499938"><ele>679.0</ele><time>2026-04-11T08:06:40Z</time></trkpt><trkpt lat="42.66577330584352" lon="12.73168384444604"><ele>679.0</ele><time>2026-04-11T08:06:48Z</time></trkpt><trkpt lat="42.66571659203687" lon="12.7316398950325"><ele>679.0</ele><time>2026-04-11T08:06:56Z</time></trkpt><trkpt lat="42.66567331433859" lon="12.731576617185377"><ele>679.0</ele><time>2026-04-11T08:07:03Z</time></trkpt><trkpt lat="42.66564406046401" lon="12.731493849288983"><ele>679.0</ele><time>2026-04-11T08:07:10Z</time></trkpt><trkpt lat="42.66565998565192" lon="12.731404810557327"><ele>679.0</ele><time>2026-04-11T08:07:27Z</time></trkpt><trkpt lat="42.66570738940071" lon="12.731334444234019"><ele>679.0</ele><time>2026-04-11T08:07:34Z</time></trkpt><trkpt lat="42.665761560399645" lon="12.731279583540447"><ele>679.0</ele><time>2026-04-11T08:07:41Z</time></trkpt><trkpt lat="42.665826552050014" lon="12.73125386798739"><ele>679.0</ele><time>2026-04-11T08:07:47Z</time></trkpt><trkpt lat="42.66588658193026" lon="12.731222903201306"><ele>679.0</ele><time>2026-04-11T08:07:53Z</time></trkpt><trkpt lat="42.66594883358996" lon="12.731170678945535"><ele>679.0</ele><time>2026-04-11T08:08:05Z</time></trkpt><trkpt lat="42.66601027109878" lon="12.731219199125777"><ele>679.0</ele><time>2026-04-11T08:08:14Z</time></trkpt><trkpt lat="42.66602668630203" lon="12.731303162250416"><ele>679.0</ele><time>2026-04-11T08:08:20Z</time></trkpt><trkpt lat="42.666036673217214" lon="12.731403989757139"><ele>679.0</ele><time>2026-04-11T08:08:27Z</time></trkpt><trkpt lat="42.666041717807296" lon="12.731495322597317"><ele>679.0</ele><time>2026-04-11T08:08:35Z</time></trkpt><trkpt lat="42.66604044464472" lon="12.731587973787082"><ele>679.0</ele><time>2026-04-11T08:08:44Z</time></trkpt><trkpt lat="42.66603520887876" lon="12.731675754285002"><ele>679.0</ele><time>2026-04-11T08:08:50Z</time></trkpt><trkpt lat="42.66604800362308" lon="12.73176679065794"><ele>679.0</ele><time>2026-04-11T08:08:57Z</time></trkpt><trkpt lat="42.66606173327689" lon="12.731858886750112"><ele>679.0</ele><time>2026-04-11T08:09:04Z</time></trkpt><trkpt lat="42.66607007023754" lon="12.731958114046366"><ele>679.0</ele><time>2026-04-11T08:09:11Z</time></trkpt><trkpt lat="42.66608220955568" lon="12.73205454922656"><ele>679.0</ele><time>2026-04-11T08:09:18Z</time></trkpt><trkpt lat="42.66606006487956" lon="12.732145688466527"><ele>679.0</ele><time>2026-04-11T08:09:25Z</time></trkpt><trkpt lat="42.665998925053906" lon="12.732170478855144"><ele>679.0</ele><time>2026-04-11T08:09:41Z</time></trkpt><trkpt lat="42.66595686027303" lon="12.73210420668013"><ele>679.0</ele><time>2026-04-11T08:09:51Z</time></trkpt><trkpt lat="42.665943305283825" lon="12.732020229518344"><ele>679.0</ele><time>2026-04-11T08:09:58Z</time></trkpt><trkpt lat="42.665944464285005" lon="12.731932982993914"><ele>679.0</ele><time>2026-04-11T08:10:05Z</time></trkpt><trkpt lat="42.665945415451574" lon="12.73183908387667"><ele>679.0</ele><time>2026-04-11T08:10:13Z</time></trkpt><trkpt lat="42.665939229927424" lon="12.731746167264971"><ele>679.0</ele><time>2026-04-11T08:10:21Z</time></trkpt><trkpt lat="42.66593497623694" lon="12.731657871753837"><ele>679.0</ele><time>2026-04-11T08:10:30Z</time></trkpt><trkpt lat="42.66593484794226" lon="12.73156965211937"><ele>679.0</ele><time>2026-04-11T08:10:39Z</time></trkpt><trkpt lat="42.66592507153557" lon="12.731484416017798"><ele>679.0</ele><time>2026-04-11T08:10:49Z</time></trkpt><trkpt lat="42.665873821791884" lon="12.731549688368931"><ele>679.0</ele><time>2026-04-11T08:10:58Z</time></trkpt><trkpt lat="42.66586840894157" lon="12.731649644273604"><ele>679.0</ele><time>2026-04-11T08:11:07Z</time></trkpt><trkpt lat="42.66586096550252" lon="12.731744367098164"><ele>679.0</ele><time>2026-04-11T08:11:13Z</time></trkpt><trkpt lat="42.665858175588276" lon="12.73183975238902"><ele>679.0</ele><time>2026-04-11T08:11:19Z</time></trkpt><trkpt lat="42.665852169159415" lon="12.731939409070295"><ele>677.4285714285714</ele><time>2026-04-11T08:11:25Z</time></trkpt><trkpt lat="42.66582042627172" lon="12.732015113211471"><ele>675.8571428571429</ele><time>2026-04-11T08:11:30Z</time></trkpt><trkpt lat="42.66576852122772" lon="12.7320804609323"><ele>674.2857142857142</ele><time>2026-04-11T08:11:36Z</time></trkpt><trkpt lat="42.66572113987878" lon="12.73215186214215"><ele>672.7142857142858</ele><time>2026-04-11T08:11:44Z</time></trkpt><trkpt lat="42.665689912599014" lon="12.732247849452762"><ele>671.1428571428571</ele><time>2026-04-11T08:11:50Z</time></trkpt><trkpt lat="42.66567940565853" lon="12.732337105771233"><ele>669.5714285714286</ele><time>2026-04-11T08:11:55Z</time></trkpt><trkpt lat="42.66566800338484" lon="12.732430017469385"><ele>668.0</ele><time>2026-04-11T08:12:00Z</time></trkpt><trkpt lat="42.665654568637386" lon="12.732528884116293"><ele>668.0</ele><time>2026-04-11T08:12:06Z</time></trkpt><trkpt lat="42.66562789397838" lon="12.732607371784443"><ele>668.0</ele><time>2026-04-11T08:12:11Z</time></trkpt></trkseg></trk></gpx>